Observation data for Knox City on 07/11/2018      Previous  Date       Current Mesonet Observations  Soil Data  Daily Summary Page  Observations in Plain Language
KKN1 110505Z 15007KT 26/19 A3007 RMK A01 T02640192  RH  068%=      5-min Rain = 0
KKN1 110510Z 15007KT 26/19 A3007 RMK A01 T02640192  RH  069%=      5-min Rain = 0
KKN1 110515Z 15007KT 26/19 A3007 RMK A01 T02630193  RH  069%=      5-min Rain = 0
KKN1 110520Z 15008KT 26/19 A3007 RMK A01 T02620193  RH  069%=      5-min Rain = 0
KKN1 110525Z 14006KT 26/19 A3007 RMK A01 T02620193  RH  069%=      5-min Rain = 0
KKN1 110530Z 14006KT 26/19 A3007 RMK A01 T02610193  RH  070%=      5-min Rain = 0
KKN1 110535Z 14007KT 26/19 A3007 RMK A01 T02610193  RH  070%=      5-min Rain = 0
KKN1 110540Z 14006KT 26/19 A3007 RMK A01 T02600193  RH  070%=      5-min Rain = 0
KKN1 110545Z 14007KT 26/19 A3007 RMK A01 T02600193  RH  071%=      5-min Rain = 0
KKN1 110550Z 14007KT 26/19 A3007 RMK A01 T02590193  RH  071%=      5-min Rain = 0
KKN1 110555Z 14007KT 26/19 A3007 RMK A01 T02590193  RH  071%=      5-min Rain = 0
KKN1 110600Z 14007KT 26/19 A3006 RMK A01 T02590193  RH  071%=      5-min Rain = 0
KKN1 110605Z 14007KT 26/19 A3006 RMK A01 T02580193  RH  071%=      5-min Rain = 0
KKN1 110610Z 14007KT 26/19 A3006 RMK A01 T02580193  RH  071%=      5-min Rain = 0
KKN1 110615Z 15007KT 26/19 A3006 RMK A01 T02570193  RH  072%=      5-min Rain = 0
KKN1 110620Z 15007KT 26/19 A3006 RMK A01 T02560193  RH  072%=      5-min Rain = 0
KKN1 110625Z 16007KT 26/19 A3006 RMK A01 T02560193  RH  072%=      5-min Rain = 0
KKN1 110630Z 16007KT 25/19 A3006 RMK A01 T02540192  RH  073%=      5-min Rain = 0
KKN1 110635Z 15007KT 25/19 A3006 RMK A01 T02540193  RH  073%=      5-min Rain = 0
KKN1 110640Z 15007KT 25/19 A3006 RMK A01 T02530193  RH  073%=      5-min Rain = 0
KKN1 110645Z 15007KT 25/19 A3006 RMK A01 T02520192  RH  074%=      5-min Rain = 0
KKN1 110650Z 15006KT 25/19 A3006 RMK A01 T02510192  RH  074%=      5-min Rain = 0
KKN1 110655Z 16007KT 25/19 A3006 RMK A01 T02510192  RH  074%=      5-min Rain = 0
KKN1 110700Z 16007KT 25/19 A3005 RMK A01 T02500192  RH  075%=      5-min Rain = 0
KKN1 110705Z 17006KT 25/19 A3005 RMK A01 T02480192  RH  075%=      5-min Rain = 0
KKN1 110710Z 17005KT 25/19 A3005 RMK A01 T02460192  RH  076%=      5-min Rain = 0
KKN1 110715Z 18005KT 24/19 A3005 RMK A01 T02440192  RH  077%=      5-min Rain = 0
KKN1 110720Z 19005KT 24/19 A3005 RMK A01 T02440192  RH  077%=      5-min Rain = 0
KKN1 110725Z 21004KT 24/19 A3005 RMK A01 T02440193  RH  077%=      5-min Rain = 0
KKN1 110730Z 24003KT 24/19 A3005 RMK A01 T02440191  RH  077%=      5-min Rain = 0
KKN1 110735Z 24003KT 25/19 A3005 RMK A01 T02450191  RH  076%=      5-min Rain = 0
KKN1 110740Z 23003KT 24/19 A3005 RMK A01 T02440191  RH  076%=      5-min Rain = 0
KKN1 110745Z 21003KT 24/19 A3005 RMK A01 T02430191  RH  077%=      5-min Rain = 0
KKN1 110750Z 20003KT 24/19 A3005 RMK A01 T02420190  RH  077%=      5-min Rain = 0
KKN1 110755Z 20003KT 24/19 A3006 RMK A01 T02410190  RH  077%=      5-min Rain = 0
KKN1 110800Z 19004KT 24/19 A3006 RMK A01 T02400189  RH  077%=      5-min Rain = 0
KKN1 110805Z 19004KT 24/19 A3005 RMK A01 T02390189  RH  078%=      5-min Rain = 0
KKN1 110810Z 19004KT 24/19 A3005 RMK A01 T02370189  RH  078%=      5-min Rain = 0
KKN1 110815Z 19004KT 24/19 A3005 RMK A01 T02370189  RH  079%=      5-min Rain = 0
KKN1 110820Z 18004KT 24/19 A3005 RMK A01 T02360189  RH  079%=      5-min Rain = 0
KKN1 110825Z 17004KT 24/19 A3005 RMK A01 T02350188  RH  079%=      5-min Rain = 0
KKN1 110830Z 17005KT 23/19 A3005 RMK A01 T02330187  RH  080%=      5-min Rain = 0
KKN1 110835Z 16005KT 23/19 A3005 RMK A01 T02320188  RH  081%=      5-min Rain = 0
KKN1 110840Z 17004KT 23/19 A3005 RMK A01 T02320188  RH  081%=      5-min Rain = 0
KKN1 110845Z 18004KT 23/19 A3005 RMK A01 T02310188  RH  081%=      5-min Rain = 0
KKN1 110850Z 21003KT 23/19 A3005 RMK A01 T02310189  RH  081%=      5-min Rain = 0
KKN1 110855Z 23003KT 23/19 A3005 RMK A01 T02310188  RH  081%=      5-min Rain = 0
KKN1 110900Z 23004KT 23/19 A3005 RMK A01 T02320190  RH  081%=      5-min Rain = 0
KKN1 110905Z 25003KT 23/19 A3005 RMK A01 T02320189  RH  081%=      5-min Rain = 0
KKN1 110910Z 26004KT 23/19 A3005 RMK A01 T02310189  RH  081%=      5-min Rain = 0
KKN1 110915Z 25004KT 23/19 A3005 RMK A01 T02310189  RH  081%=      5-min Rain = 0
KKN1 110920Z 26004KT 23/19 A3005 RMK A01 T02330189  RH  081%=      5-min Rain = 0
KKN1 110925Z 24004KT 23/19 A3004 RMK A01 T02340189  RH  080%=      5-min Rain = 0
KKN1 110930Z 23004KT 23/19 A3004 RMK A01 T02340189  RH  080%=      5-min Rain = 0
KKN1 110935Z 24004KT 24/19 A3004 RMK A01 T02350190  RH  080%=      5-min Rain = 0
KKN1 110940Z 24004KT 24/19 A3004 RMK A01 T02360189  RH  079%=      5-min Rain = 0
KKN1 110945Z 24003KT 24/19 A3004 RMK A01 T02360189  RH  079%=      5-min Rain = 0
KKN1 110950Z 26002KT 24/19 A3004 RMK A01 T02350189  RH  079%=      5-min Rain = 0
KKN1 110955Z 24003KT 24/19 A3004 RMK A01 T02360190  RH  080%=      5-min Rain = 0
KKN1 111000Z 24002KT 24/19 A3004 RMK A01 T02380191  RH  079%=      5-min Rain = 0
KKN1 111005Z 26002KT 24/19 A3005 RMK A01 T02370190  RH  079%=      5-min Rain = 0
KKN1 111010Z 25002KT 24/19 A3005 RMK A01 T02360189  RH  079%=      5-min Rain = 0
KKN1 111015Z 21004KT 24/19 A3005 RMK A01 T02380191  RH  079%=      5-min Rain = 0
KKN1 111020Z 21004KT 24/19 A3005 RMK A01 T02400191  RH  078%=      5-min Rain = 0
KKN1 111025Z 21004KT 24/19 A3005 RMK A01 T02400191  RH  079%=      5-min Rain = 0
KKN1 111030Z 22003KT 24/19 A3005 RMK A01 T02390191  RH  079%=      5-min Rain = 0
KKN1 111035Z 24002KT 24/19 A3005 RMK A01 T02370189  RH  078%=      5-min Rain = 0
KKN1 111040Z 24002KT 24/19 A3005 RMK A01 T02360188  RH  079%=      5-min Rain = 0
KKN1 111045Z 24003KT 24/19 A3005 RMK A01 T02360189  RH  079%=      5-min Rain = 0
KKN1 111050Z 24003KT 24/19 A3004 RMK A01 T02360189  RH  079%=      5-min Rain = 0
KKN1 111055Z 23003KT 24/19 A3004 RMK A01 T02360189  RH  079%=      5-min Rain = 0
KKN1 111100Z 22003KT 24/19 A3004 RMK A01 T02360190  RH  080%=      5-min Rain = 0
KKN1 111105Z 21004KT 24/19 A3005 RMK A01 T02360189  RH  079%=      5-min Rain = 0
KKN1 111110Z 20004KT 23/19 A3005 RMK A01 T02340188  RH  080%=      5-min Rain = 0
KKN1 111115Z 20005KT 23/19 A3005 RMK A01 T02320188  RH  080%=      5-min Rain = 0
KKN1 111120Z 19004KT 23/19 A3005 RMK A01 T02320188  RH  081%=      5-min Rain = 0
KKN1 111125Z 19005KT 23/19 A3005 RMK A01 T02320189  RH  081%=      5-min Rain = 0
KKN1 111130Z 20005KT 23/19 A3005 RMK A01 T02330190  RH  081%=      5-min Rain = 0
KKN1 111135Z 20005KT 23/19 A3005 RMK A01 T02330190  RH  081%=      5-min Rain = 0
KKN1 111140Z 20005KT 23/19 A3005 RMK A01 T02320189  RH  081%=      5-min Rain = 0
KKN1 111145Z 20004KT 23/19 A3006 RMK A01 T02310189  RH  081%=      5-min Rain = 0
KKN1 111150Z 21004KT 23/19 A3006 RMK A01 T02310189  RH  082%=      5-min Rain = 0
KKN1 111155Z 22004KT 23/19 A3006 RMK A01 T02310188  RH  081%=      5-min Rain = 0
KKN1 111200Z 21005KT 23/19 A3006 RMK A01 T02310189  RH  082%=      5-min Rain = 0
KKN1 111205Z 21005KT 23/19 A3006 RMK A01 T02320189  RH  081%=      5-min Rain = 0
KKN1 111210Z 21004KT 23/19 A3007 RMK A01 T02330189  RH  080%=      5-min Rain = 0
KKN1 111215Z 21004KT 24/19 A3007 RMK A01 T02350189  RH  080%=      5-min Rain = 0
KKN1 111220Z 20005KT 24/19 A3007 RMK A01 T02350189  RH  080%=      5-min Rain = 0
KKN1 111225Z 20005KT 24/19 A3007 RMK A01 T02380190  RH  079%=      5-min Rain = 0
KKN1 111230Z 20006KT 24/19 A3007 RMK A01 T02400190  RH  077%=      5-min Rain = 0
KKN1 111235Z 20006KT 24/19 A3007 RMK A01 T02430190  RH  076%=      5-min Rain = 0
KKN1 111240Z 20006KT 25/19 A3007 RMK A01 T02450189  RH  075%=      5-min Rain = 0
KKN1 111245Z 20006KT 25/19 A3007 RMK A01 T02450189  RH  075%=      5-min Rain = 0
KKN1 111250Z 20006KT 25/19 A3007 RMK A01 T02450188  RH  075%=      5-min Rain = 0
KKN1 111255Z 20006KT 25/19 A3007 RMK A01 T02460188  RH  074%=      5-min Rain = 0
KKN1 111300Z 21006KT 25/19 A3007 RMK A01 T02480188  RH  073%=      5-min Rain = 0
KKN1 111305Z 21006KT 25/19 A3008 RMK A01 T02530188  RH  071%=      5-min Rain = 0
KKN1 111310Z 22005KT 26/19 A3008 RMK A01 T02600188  RH  068%=      5-min Rain = 0
KKN1 111315Z 21006KT 26/19 A3008 RMK A01 T02610187  RH  067%=      5-min Rain = 0
KKN1 111320Z 22005KT 26/19 A3008 RMK A01 T02630186  RH  066%=      5-min Rain = 0
KKN1 111325Z 23005KT 26/19 A3008 RMK A01 T02630185  RH  065%=      5-min Rain = 0
KKN1 111330Z 23004KT 27/18 A3008 RMK A01 T02660184  RH  064%=      5-min Rain = 0
KKN1 111335Z 24005KT 27/18 A3008 RMK A01 T02730182  RH  061%=      5-min Rain = 0
KKN1 111340Z 24006KT 28/18 A3009 RMK A01 T02790178  RH  057%=      5-min Rain = 0
KKN1 111345Z 23006KT 28/18 A3009 RMK A01 T02840176  RH  055%=      5-min Rain = 0
KKN1 111350Z 23007KT 29/17 A3009 RMK A01 T02890173  RH  052%=      5-min Rain = 0
KKN1 111355Z 23008KT 29/17 A3009 RMK A01 T02910172  RH  051%=      5-min Rain = 0
KKN1 111400Z 23008KT 29/17 A3009 RMK A01 T02930172  RH  051%=      5-min Rain = 0
KKN1 111405Z 23007KT 29/17 A3009 RMK A01 T02940172  RH  050%=      5-min Rain = 0
KKN1 111410Z 22008KT 30/17 A3009 RMK A01 T02970171  RH  049%=      5-min Rain = 0
KKN1 111415Z 22008KT 30/17 A3009 RMK A01 T02970170  RH  049%=      5-min Rain = 0
KKN1 111420Z 23008KT 30/17 A3009 RMK A01 T03000170  RH  048%=      5-min Rain = 0
KKN1 111425Z 23007KT 30/17 A3009 RMK A01 T02990171  RH  049%=      5-min Rain = 0
KKN1 111430Z 23008KT 30/17 A3009 RMK A01 T03040172  RH  047%=      5-min Rain = 0
KKN1 111435Z 22009KT 31/17 A3009 RMK A01 T03070172  RH  047%=      5-min Rain = 0
KKN1 111440Z 23009KT 31/17 A3009 RMK A01 T03090171  RH  046%=      5-min Rain = 0
KKN1 111445Z 23008KT 31/17 A3009 RMK A01 T03100172  RH  046%=      5-min Rain = 0
KKN1 111450Z 22010G15KT 32/17 A3009 RMK A01 T03150173  RH  045%=      5-min Rain = 0
KKN1 111455Z 22010KT 32/17 A3009 RMK A01 T03170173  RH  044%=      5-min Rain = 0
KKN1 111500Z 23009KT 32/17 A3009 RMK A01 T03200173  RH  044%=      5-min Rain = 0
KKN1 111505Z 22010KT 32/17 A3009 RMK A01 T03180173  RH  044%=      5-min Rain = 0
KKN1 111510Z 23008KT 32/17 A3009 RMK A01 T03150171  RH  044%=      5-min Rain = 0
KKN1 111515Z 22010KT 32/17 A3009 RMK A01 T03170171  RH  044%=      5-min Rain = 0
KKN1 111520Z 23010KT 32/17 A3009 RMK A01 T03190171  RH  043%=      5-min Rain = 0
KKN1 111525Z 23011KT 32/17 A3009 RMK A01 T03210170  RH  043%=      5-min Rain = 0
KKN1 111530Z 23009G14KT 32/17 A3009 RMK A01 T03170170  RH  043%=      5-min Rain = 0
KKN1 111535Z 22009KT 32/17 A3008 RMK A01 T03170170  RH  044%=      5-min Rain = 0
KKN1 111540Z 22010KT 32/17 A3008 RMK A01 T03220171  RH  043%=      5-min Rain = 0
KKN1 111545Z 22010KT 33/17 A3008 RMK A01 T03290171  RH  041%=      5-min Rain = 0
KKN1 111550Z 24010KT 33/17 A3008 RMK A01 T03270169  RH  041%=      5-min Rain = 0
KKN1 111555Z 24007KT 33/17 A3008 RMK A01 T03270171  RH  041%=      5-min Rain = 0
KKN1 111600Z 21007KT 34/17 A3008 RMK A01 T03360171  RH  040%=      5-min Rain = 0
KKN1 111605Z 24008KT 34/17 A3008 RMK A01 T03420171  RH  038%=      5-min Rain = 0
KKN1 111610Z 21009G14KT 34/17 A3008 RMK A01 T03380169  RH  038%=      5-min Rain = 0
KKN1 111615Z 23007KT 34/17 A3008 RMK A01 T03420168  RH  037%=      5-min Rain = 0
KKN1 111620Z 24008G13KT 34/17 A3007 RMK A01 T03420167  RH  037%=      5-min Rain = 0
KKN1 111625Z 22008G14KT 35/17 A3007 RMK A01 T03450166  RH  036%=      5-min Rain = 0
KKN1 111630Z 21009G14KT 34/16 A3007 RMK A01 T03430160  RH  035%=      5-min Rain = 0
KKN1 111635Z 21005G10KT 34/16 A3007 RMK A01 T03430159  RH  035%=      5-min Rain = 0
KKN1 111640Z 21007KT 35/16 A3007 RMK A01 T03450161  RH  035%=      5-min Rain = 0
KKN1 111645Z 19007G12KT 35/16 A3007 RMK A01 T03450161  RH  035%=      5-min Rain = 0
KKN1 111650Z 21006KT 35/16 A3007 RMK A01 T03480157  RH  034%=      5-min Rain = 0
KKN1 111655Z 23007G12KT 35/16 A3007 RMK A01 T03490156  RH  033%=      5-min Rain = 0
KKN1 111700Z 21005KT 35/16 A3007 RMK A01 T03510157  RH  033%=      5-min Rain = 0
KKN1 111705Z 21006KT 35/16 A3007 RMK A01 T03500156  RH  033%=      5-min Rain = 0
KKN1 111710Z 22004KT 35/15 A3006 RMK A01 T03500151  RH  032%=      5-min Rain = 0
KKN1 111715Z 20003KT 35/15 A3006 RMK A01 T03540153  RH  032%=      5-min Rain = 0
KKN1 111720Z 16004G9KT 36/15 A3006 RMK A01 T03570152  RH  031%=      5-min Rain = 0
KKN1 111725Z 18007G12KT 36/15 A3006 RMK A01 T03620151  RH  030%=      5-min Rain = 0
KKN1 111730Z 20006G11KT 36/15 A3006 RMK A01 T03580150  RH  030%=      5-min Rain = 0
KKN1 111735Z 18004G11KT 36/15 A3006 RMK A01 T03580153  RH  031%=      5-min Rain = 0
KKN1 111740Z 13007KT 36/15 A3006 RMK A01 T03590151  RH  030%=      5-min Rain = 0
KKN1 111745Z 18008G13KT 36/14 A3006 RMK A01 T03580144  RH  029%=      5-min Rain = 0
KKN1 111750Z 21008G13KT 37/14 A3006 RMK A01 T03670140  RH  027%=      5-min Rain = 0
KKN1 111755Z 20007G12KT 36/14 A3005 RMK A01 T03590140  RH  028%=      5-min Rain = 0
KKN1 111800Z 17005KT 35/14 A3005 RMK A01 T03530141  RH  029%=      5-min Rain = 0
KKN1 111805Z 21008KT 36/14 A3005 RMK A01 T03580144  RH  029%=      5-min Rain = 0
KKN1 111810Z 19010G15KT 37/14 A3005 RMK A01 T03650143  RH  028%=      5-min Rain = 0
KKN1 111815Z 18010KT 37/14 A3005 RMK A01 T03670142  RH  027%=      5-min Rain = 0
KKN1 111820Z 18010KT 37/15 A3005 RMK A01 T03680145  RH  028%=      5-min Rain = 0
KKN1 111825Z 18006G14KT 37/14 A3004 RMK A01 T03650143  RH  028%=      5-min Rain = 0
KKN1 111830Z 17006G12KT 37/14 A3004 RMK A01 T03660142  RH  027%=      5-min Rain = 0
KKN1 111835Z 14009G18KT 36/14 A3004 RMK A01 T03620142  RH  028%=      5-min Rain = 0
KKN1 111840Z 14012G17KT 37/14 A3004 RMK A01 T03740144  RH  027%=      5-min Rain = 0
KKN1 111845Z 18008G15KT 38/14 A3003 RMK A01 T03750143  RH  026%=      5-min Rain = 0
KKN1 111850Z 19009G15KT 37/14 A3003 RMK A01 T03720143  RH  027%=      5-min Rain = 0
KKN1 111855Z 19012G17KT 38/14 A3003 RMK A01 T03780142  RH  026%=      5-min Rain = 0
KKN1 111900Z 18006G13KT 37/14 A3003 RMK A01 T03700142  RH  027%=      5-min Rain = 0
KKN1 111905Z 18011G16KT 37/14 A3003 RMK A01 T03730144  RH  027%=      5-min Rain = 0
KKN1 111910Z 18012G20KT 38/14 A3002 RMK A01 T03770139  RH  025%=      5-min Rain = 0
KKN1 111915Z 16014G19KT 38/14 A3002 RMK A01 T03820136  RH  024%=      5-min Rain = 0
KKN1 111920Z 17008G15KT 37/13 A3002 RMK A01 T03660133  RH  026%=      5-min Rain = 0
KKN1 111925Z 17010G16KT 37/14 A3002 RMK A01 T03680138  RH  026%=      5-min Rain = 0
KKN1 111930Z 17011KT 38/14 A3002 RMK A01 T03790143  RH  026%=      5-min Rain = 0
KKN1 111935Z 18008G22KT 37/14 A3002 RMK A01 T03690140  RH  027%=      5-min Rain = 0
KKN1 111940Z 16013G19KT 38/14 A3001 RMK A01 T03810138  RH  025%=      5-min Rain = 0
KKN1 111945Z 17012G17KT 37/14 A3001 RMK A01 T03700136  RH  026%=      5-min Rain = 0
KKN1 111950Z 15010G18KT 37/14 A3001 RMK A01 T03710140  RH  026%=      5-min Rain = 0
KKN1 111955Z 15011G16KT 38/14 A3001 RMK A01 T03770139  RH  025%=      5-min Rain = 0
KKN1 112000Z 17013G19KT 37/14 A30 RMK A01 T03700140  RH  027%=      5-min Rain = 0
KKN1 112005Z 17014G21KT 38/14 A30 RMK A01 T03770139  RH  025%=      5-min Rain = 0
KKN1 112010Z 18012G17KT 38/14 A30 RMK A01 T03790137  RH  025%=      5-min Rain = 0
KKN1 112015Z 19010G18KT 38/14 A30 RMK A01 T03800138  RH  025%=      5-min Rain = 0
KKN1 112020Z 18012G20KT 38/14 A30 RMK A01 T03770139  RH  025%=      5-min Rain = 0
KKN1 112025Z 19013G19KT 37/14 A2999 RMK A01 T03710140  RH  026%=      5-min Rain = 0
KKN1 112030Z 16015G21KT 38/14 A2999 RMK A01 T03830137  RH  024%=      5-min Rain = 0
KKN1 112035Z 17013G19KT 39/14 A2999 RMK A01 T03880138  RH  024%=      5-min Rain = 0
KKN1 112040Z 17014KT 38/14 A2999 RMK A01 T03820138  RH  025%=      5-min Rain = 0
KKN1 112045Z 18013G21KT 38/14 A2998 RMK A01 T03800141  RH  025%=      5-min Rain = 0
KKN1 112050Z 18011G20KT 38/14 A2998 RMK A01 T03800143  RH  026%=      5-min Rain = 0
KKN1 112055Z 17013G19KT 38/14 A2998 RMK A01 T03840142  RH  025%=      5-min Rain = 0
KKN1 112100Z 17014G22KT 38/14 A2998 RMK A01 T03810140  RH  025%=      5-min Rain = 0
KKN1 112105Z 16011G20KT 38/14 A2998 RMK A01 T03800140  RH  025%=      5-min Rain = 0
KKN1 112110Z 16012KT 38/14 A2998 RMK A01 T03830140  RH  025%=      5-min Rain = 0
KKN1 112115Z 14010G15KT 38/14 A2997 RMK A01 T03820137  RH  024%=      5-min Rain = 0
KKN1 112120Z 17009G17KT 38/14 A2997 RMK A01 T03790135  RH  024%=      5-min Rain = 0
KKN1 112125Z 18012G20KT 38/14 A2997 RMK A01 T03810137  RH  024%=      5-min Rain = 0
KKN1 112130Z 17009KT 38/14 A2997 RMK A01 T03810136  RH  024%=      5-min Rain = 0
KKN1 112135Z 16007G12KT 38/14 A2997 RMK A01 T03840135  RH  024%=      5-min Rain = 0
KKN1 112140Z 17011G19KT 38/13 A2996 RMK A01 T03840132  RH  023%=      5-min Rain = 0
KKN1 112145Z 17012G19KT 39/13 A2996 RMK A01 T03880129  RH  022%=      5-min Rain = 0
KKN1 112150Z 15008G13KT 38/13 A2996 RMK A01 T03830128  RH  023%=      5-min Rain = 0
KKN1 112155Z 16011G22KT 39/13 A2996 RMK A01 T03850130  RH  023%=      5-min Rain = 0
KKN1 112200Z 16010G16KT 38/13 A2996 RMK A01 T03770132  RH  024%=      5-min Rain = 0
KKN1 112205Z 17010KT 37/13 A2995 RMK A01 T03700130  RH  025%=      5-min Rain = 0
KKN1 112210Z 18009G16KT 37/13 A2995 RMK A01 T03740130  RH  024%=      5-min Rain = 0
KKN1 112215Z 16010G16KT 38/13 A2995 RMK A01 T03840131  RH  023%=      5-min Rain = 0
KKN1 112220Z 14012KT 38/13 A2994 RMK A01 T03830130  RH  023%=      5-min Rain = 0
KKN1 112225Z 16011G16KT 38/13 A2994 RMK A01 T03840130  RH  023%=      5-min Rain = 0
KKN1 112230Z 17011KT 38/13 A2994 RMK A01 T03840127  RH  022%=      5-min Rain = 0
KKN1 112235Z 19009KT 38/13 A2994 RMK A01 T03780128  RH  024%=      5-min Rain = 0
KKN1 112240Z 19010KT 38/13 A2994 RMK A01 T03780129  RH  024%=      5-min Rain = 0
KKN1 112245Z 16007KT 38/13 A2994 RMK A01 T03810129  RH  023%=      5-min Rain = 0
KKN1 112250Z 15009G15KT 38/13 A2994 RMK A01 T03830128  RH  023%=      5-min Rain = 0
KKN1 112255Z 17011KT 38/13 A2994 RMK A01 T03800127  RH  023%=      5-min Rain = 0
KKN1 112300Z 15010G15KT 38/13 A2994 RMK A01 T03790127  RH  023%=      5-min Rain = 0
KKN1 112305Z 14007G16KT 38/13 A2994 RMK A01 T03770128  RH  023%=      5-min Rain = 0
KKN1 112310Z 15009G14KT 38/13 A2993 RMK A01 T03810128  RH  023%=      5-min Rain = 0
KKN1 112315Z 16011KT 38/13 A2993 RMK A01 T03800127  RH  023%=      5-min Rain = 0
KKN1 112320Z 15009G14KT 38/13 A2993 RMK A01 T03820126  RH  023%=      5-min Rain = 0
KKN1 112325Z 16008KT 38/13 A2993 RMK A01 T03790126  RH  023%=      5-min Rain = 0
KKN1 112330Z 17012G17KT 38/13 A2993 RMK A01 T03830128  RH  023%=      5-min Rain = 0
KKN1 112335Z 18010KT 38/13 A2993 RMK A01 T03800126  RH  023%=      5-min Rain = 0
KKN1 112340Z 16010KT 38/13 A2993 RMK A01 T03770128  RH  024%=      5-min Rain = 0
KKN1 112345Z 18010KT 38/13 A2993 RMK A01 T03780128  RH  023%=      5-min Rain = 0
KKN1 112350Z 18011KT 38/13 A2993 RMK A01 T03770129  RH  024%=      5-min Rain = 0
KKN1 112355Z 19008KT 38/13 A2993 RMK A01 T03750126  RH  024%=      5-min Rain = 0
KKN1 120000Z 19009KT 38/13 A2993 RMK A01 T03760126  RH  023%=      5-min Rain = 0
KKN1 120005Z 18010G15KT 38/13 A2993 RMK A01 T03760126  RH  023%=      5-min Rain = 0
KKN1 120010Z 19010KT 37/13 A2993 RMK A01 T03740127  RH  024%=      5-min Rain = 0
KKN1 120015Z 18009KT 37/13 A2993 RMK A01 T03720127  RH  024%=      5-min Rain = 0
KKN1 120020Z 17009KT 37/13 A2993 RMK A01 T03720126  RH  024%=      5-min Rain = 0
KKN1 120025Z 16006KT 37/13 A2993 RMK A01 T03720127  RH  024%=      5-min Rain = 0
KKN1 120030Z 17008KT 37/13 A2993 RMK A01 T03730125  RH  024%=      5-min Rain = 0
KKN1 120035Z 16009KT 37/13 A2993 RMK A01 T03740129  RH  024%=      5-min Rain = 0
KKN1 120040Z 16010KT 37/13 A2993 RMK A01 T03720132  RH  025%=      5-min Rain = 0
KKN1 120045Z 17010KT 37/13 A2993 RMK A01 T03680133  RH  026%=      5-min Rain = 0
KKN1 120050Z 17007KT 36/13 A2993 RMK A01 T03640131  RH  026%=      5-min Rain = 0
KKN1 120055Z 17009KT 37/13 A2994 RMK A01 T03650133  RH  026%=      5-min Rain = 0
KKN1 120100Z 17007KT 36/14 A2994 RMK A01 T03630135  RH  027%=      5-min Rain = 0
KKN1 120105Z 18009KT 36/13 A2994 RMK A01 T03600134  RH  027%=      5-min Rain = 0
KKN1 120110Z 17008KT 36/13 A2994 RMK A01 T03590133  RH  027%=      5-min Rain = 0
KKN1 120115Z 18006KT 36/13 A2994 RMK A01 T03570134  RH  027%=      5-min Rain = 0
KKN1 120120Z 17006KT 35/14 A2994 RMK A01 T03540136  RH  028%=      5-min Rain = 0
KKN1 120125Z 16006KT 35/14 A2994 RMK A01 T03520137  RH  029%=      5-min Rain = 0
KKN1 120130Z 15009G14KT 35/14 A2994 RMK A01 T03500139  RH  030%=      5-min Rain = 0
KKN1 120135Z 14010KT 35/15 A2995 RMK A01 T03480153  RH  033%=      5-min Rain = 0
KKN1 120140Z 13011KT 35/16 A2995 RMK A01 T03450156  RH  034%=      5-min Rain = 0
KKN1 120145Z 14012KT 34/16 A2995 RMK A01 T03430156  RH  034%=      5-min Rain = 0
KKN1 120150Z 13011KT 34/16 A2996 RMK A01 T03430157  RH  034%=      5-min Rain = 0
KKN1 120155Z 13011KT 34/16 A2996 RMK A01 T03410157  RH  035%=      5-min Rain = 0
KKN1 120200Z 13010KT 34/16 A2996 RMK A01 T03380158  RH  036%=      5-min Rain = 0
KKN1 120205Z 13010KT 34/16 A2996 RMK A01 T03370158  RH  036%=      5-min Rain = 0
KKN1 120210Z 14011KT 34/16 A2996 RMK A01 T03360159  RH  036%=      5-min Rain = 0
KKN1 120215Z 14013G19KT 34/16 A2997 RMK A01 T03360161  RH  037%=      5-min Rain = 0
KKN1 120220Z 14014KT 34/16 A2997 RMK A01 T03350163  RH  038%=      5-min Rain = 0
KKN1 120225Z 14016KT 33/17 A2997 RMK A01 T03330168  RH  039%=      5-min Rain = 0
KKN1 120230Z 14015G20KT 33/17 A2997 RMK A01 T03310171  RH  040%=      5-min Rain = 0
KKN1 120235Z 14014KT 33/17 A2997 RMK A01 T03290171  RH  041%=      5-min Rain = 0
KKN1 120240Z 14014KT 33/17 A2998 RMK A01 T03280171  RH  041%=      5-min Rain = 0
KKN1 120245Z 14014KT 33/17 A2998 RMK A01 T03270171  RH  041%=      5-min Rain = 0
KKN1 120250Z 14014KT 33/17 A2998 RMK A01 T03260171  RH  042%=      5-min Rain = 0
KKN1 120255Z 13014KT 32/17 A2998 RMK A01 T03240171  RH  042%=      5-min Rain = 0
KKN1 120300Z 13015KT 32/17 A2998 RMK A01 T03230172  RH  042%=      5-min Rain = 0
KKN1 120305Z 13015G20KT 32/17 A2999 RMK A01 T03220171  RH  043%=      5-min Rain = 0
KKN1 120310Z 13013G18KT 32/17 A2999 RMK A01 T03210171  RH  043%=      5-min Rain = 0
KKN1 120315Z 13013KT 32/17 A2999 RMK A01 T03200171  RH  043%=      5-min Rain = 0
KKN1 120320Z 13012KT 32/17 A2999 RMK A01 T03200171  RH  043%=      5-min Rain = 0
KKN1 120325Z 13013KT 32/17 A30 RMK A01 T03190170  RH  043%=      5-min Rain = 0
KKN1 120330Z 13013KT 32/17 A30 RMK A01 T03200171  RH  043%=      5-min Rain = 0
KKN1 120335Z 13013KT 32/17 A30 RMK A01 T03190170  RH  043%=      5-min Rain = 0
KKN1 120340Z 13013KT 32/17 A3001 RMK A01 T03190171  RH  043%=      5-min Rain = 0
KKN1 120345Z 13013KT 32/17 A3001 RMK A01 T03190171  RH  043%=      5-min Rain = 0
KKN1 120350Z 13012G17KT 32/17 A3001 RMK A01 T03170171  RH  044%=      5-min Rain = 0
KKN1 120355Z 13012KT 32/17 A3001 RMK A01 T03170171  RH  044%=      5-min Rain = 0
KKN1 120400Z 13012G17KT 32/17 A3001 RMK A01 T03160171  RH  044%=      5-min Rain = 0
KKN1 120405Z 13013KT 32/17 A3001 RMK A01 T03150170  RH  044%=      5-min Rain = 0
KKN1 120410Z 13012KT 31/17 A3001 RMK A01 T03140170  RH  044%=      5-min Rain = 0
KKN1 120415Z 13012G17KT 31/17 A3001 RMK A01 T03120170  RH  045%=      5-min Rain = 0
KKN1 120420Z 14012KT 31/17 A3001 RMK A01 T03120170  RH  045%=      5-min Rain = 0
KKN1 120425Z 14012G17KT 31/17 A3001 RMK A01 T03110170  RH  045%=      5-min Rain = 0
KKN1 120430Z 14013KT 31/17 A3001 RMK A01 T03110169  RH  045%=      5-min Rain = 0
KKN1 120435Z 13013KT 31/17 A3001 RMK A01 T03090169  RH  045%=      5-min Rain = 0
KKN1 120440Z 13014G19KT 31/17 A3001 RMK A01 T03080169  RH  046%=      5-min Rain = 0
KKN1 120445Z 14016KT 31/17 A3001 RMK A01 T03080169  RH  046%=      5-min Rain = 0
KKN1 120450Z 14016KT 31/17 A3001 RMK A01 T03070170  RH  046%=      5-min Rain = 0
KKN1 120455Z 14015G20KT 31/17 A3001 RMK A01 T03060170  RH  046%=      5-min Rain = 0
KKN1 120500Z 14013KT 30/17 A3002 RMK A01 T03040171  RH  047%=      5-min Rain = 0

Page generated in 0.0092 seconds.